Time;durP1;ratioP1;P1;durP2;ratioP2;P2;SDS_P1;SDS_P2;PMS_P1;PMS_P2;Temp;Humidity;BMP_temperature;BMP_pressure;BME280_temperature;BME280_humidity;BME280_pressure;Samples;Min_cycle;Max_cycle;Signal;HPM_P1;HPM_P2
2021/04/19 00:02:09;;;;;;;11.88;6.58;;;;;;;6.54;67.03;100716.50;1772940;79;21194;-61
2021/04/19 00:04:38;;;;;;;9.73;5.75;;;;;;;6.49;67.20;100712.84;1791832;78;21444;-61
2021/04/19 00:07:06;;;;;;;13.43;6.35;;;;;;;6.47;67.57;100712.53;1760684;79;21482;-60
2021/04/19 00:09:35;;;;;;;10.43;5.83;;;;;;;6.46;67.60;100710.39;1782406;78;21252;-60
2021/04/19 00:12:07;;;;;;;11.55;5.33;;;;;;;6.42;67.70;100706.28;1812288;77;21132;-61
2021/04/19 00:14:35;;;;;;;10.75;6.40;;;;;;;6.47;67.70;100710.78;1806925;78;21191;-60
2021/04/19 00:17:04;;;;;;;11.57;5.87;;;;;;;6.60;67.63;100708.75;1802766;78;21170;-60
2021/04/19 00:19:33;;;;;;;10.43;5.55;;;;;;;6.69;67.57;100711.68;1782782;78;21159;-60
2021/04/19 00:22:01;;;;;;;8.88;5.37;;;;;;;6.72;67.44;100710.64;1818564;77;21159;-60
2021/04/19 00:24:29;;;;;;;10.53;6.53;;;;;;;6.72;67.57;100704.10;1753786;80;21211;-60
2021/04/19 00:26:57;;;;;;;12.68;6.72;;;;;;;6.68;67.46;100701.30;1812708;77;21117;-60
2021/04/19 00:29:24;;;;;;;12.98;7.10;;;;;;;6.63;67.65;100700.73;1817174;78;21545;-60
2021/04/19 00:31:52;;;;;;;9.48;5.87;;;;;;;6.59;67.67;100696.16;1773471;78;22003;-60
2021/04/19 00:34:21;;;;;;;12.47;6.33;;;;;;;6.57;67.58;100690.15;1791038;78;21194;-60
2021/04/19 00:36:49;;;;;;;11.43;6.60;;;;;;;6.51;67.56;100696.59;1788268;78;21200;-60
2021/04/19 00:39:17;;;;;;;11.88;6.20;;;;;;;6.45;67.78;100691.70;1816630;78;21171;-60
2021/04/19 00:41:45;;;;;;;9.05;5.95;;;;;;;6.45;67.88;100696.94;1788405;78;21168;-60
2021/04/19 00:44:13;;;;;;;12.33;6.35;;;;;;;6.49;67.52;100691.92;1801899;78;21152;-60
2021/04/19 00:46:40;;;;;;;9.45;6.28;;;;;;;6.50;67.67;100694.89;1813775;77;21168;-60
2021/04/19 00:49:09;;;;;;;12.60;6.60;;;;;;;6.54;67.72;100691.66;1785664;79;21128;-60
2021/04/19 00:51:37;;;;;;;14.43;6.58;;;;;;;6.50;67.84;100696.20;1783239;78;21176;-61
2021/04/19 00:54:05;;;;;;;11.28;7.25;;;;;;;6.47;67.85;100694.23;1803591;77;21170;-60
2021/04/19 00:56:33;;;;;;;13.98;7.35;;;;;;;6.40;67.74;100688.52;1793481;79;21247;-60
2021/04/19 00:59:00;;;;;;;10.95;7.55;;;;;;;6.33;67.53;100691.11;1733117;79;21195;-60
2021/04/19 01:01:32;;;;;;;14.87;8.58;;;;;;;6.25;67.62;100688.92;1760224;79;21195;-60
2021/04/19 01:03:59;;;;;;;12.50;7.37;;;;;;;6.21;67.76;100685.30;1786901;78;21186;-60
2021/04/19 01:06:27;;;;;;;12.63;7.72;;;;;;;6.14;67.71;100679.57;1805828;77;21164;-60
2021/04/19 01:08:55;;;;;;;14.10;8.08;;;;;;;6.08;68.03;100676.83;1808542;77;21366;-58
2021/04/19 01:11:23;;;;;;;13.58;7.25;;;;;;;6.12;68.38;100680.96;1802433;77;21175;-58
2021/04/19 01:13:52;;;;;;;12.85;7.17;;;;;;;6.23;68.42;100681.64;1811402;78;21163;-58
2021/04/19 01:16:23;;;;;;;12.07;7.65;;;;;;;6.32;68.45;100673.30;1814409;77;21587;-58
2021/04/19 01:18:52;;;;;;;12.88;7.33;;;;;;;6.39;68.40;100673.78;1806404;78;21183;-56
2021/04/19 01:21:21;;;;;;;12.45;6.95;;;;;;;6.35;67.91;100671.42;1808702;78;21149;-56
2021/04/19 01:23:50;;;;;;;13.55;7.95;;;;;;;6.27;67.68;100683.17;1810779;78;21140;-58
2021/04/19 01:26:19;;;;;;;14.60;7.92;;;;;;;6.21;67.71;100682.20;1780367;79;21216;-58
2021/04/19 01:28:50;;;;;;;12.35;7.47;;;;;;;6.11;67.88;100676.66;1786388;78;21136;-58
2021/04/19 01:31:20;;;;;;;13.32;8.75;;;;;;;6.03;68.10;100681.94;1780084;78;21622;-57
2021/04/19 01:33:48;;;;;;;13.75;8.58;;;;;;;5.97;68.50;100683.14;1803304;77;21375;-57
2021/04/19 01:36:17;;;;;;;18.15;10.63;;;;;;;5.93;68.85;100677.66;1772077;79;21193;-57
2021/04/19 01:38:46;;;;;;;14.05;8.78;;;;;;;5.98;68.87;100680.05;1787664;79;21151;-57
2021/04/19 01:41:14;;;;;;;16.75;10.43;;;;;;;6.08;68.66;100675.52;1788674;78;21152;-57
2021/04/19 01:43:43;;;;;;;17.02;10.58;;;;;;;6.14;68.63;100669.95;1766380;78;21108;-57
2021/04/19 01:46:12;;;;;;;17.05;10.15;;;;;;;6.19;68.68;100670.17;1744682;80;21220;-57
2021/04/19 01:48:40;;;;;;;17.45;11.15;;;;;;;6.19;68.70;100671.48;1791558;77;21132;-57
2021/04/19 01:51:08;;;;;;;20.35;12.53;;;;;;;6.15;68.73;100664.25;1764172;79;21203;-57
2021/04/19 01:53:36;;;;;;;20.52;12.05;;;;;;;6.11;68.75;100667.51;1805498;77;21196;-57
2021/04/19 01:56:06;;;;;;;18.87;11.83;;;;;;;6.08;68.75;100665.06;1804917;77;21160;-57
2021/04/19 01:58:36;;;;;;;21.55;11.78;;;;;;;6.05;68.79;100667.87;1809768;77;21204;-57
2021/04/19 02:01:04;;;;;;;19.30;10.95;;;;;;;6.06;68.80;100664.80;1804407;78;21180;-57
2021/04/19 02:03:58;;;;;;;18.10;11.50;;;;;;;6.11;68.67;100671.43;1810528;77;21600;-57
2021/04/19 02:06:45;;;;;;;20.00;11.45;;;;;;;6.15;68.55;100664.25;1790305;79;21119;-58
2021/04/19 02:09:23;;;;;;;18.82;11.73;;;;;;;6.16;68.55;100662.03;1794059;78;21140;-58
2021/04/19 02:12:17;;;;;;;17.50;10.95;;;;;;;6.14;68.67;100664.73;1829026;77;21185;-57
2021/04/19 02:15:10;;;;;;;18.37;12.18;;;;;;;6.12;68.67;100665.28;1828866;77;21124;-58
2021/04/19 02:17:50;;;;;;;17.60;10.70;;;;;;;6.06;68.26;100658.27;1807850;78;21619;-57
2021/04/19 02:20:57;;;;;;;19.70;9.83;;;;;;;5.91;68.26;100665.16;1800844;77;21193;-57
2021/04/19 02:23:44;;;;;;;14.43;8.10;;;;;;;5.79;68.33;100673.69;1825199;77;21135;-57
2021/04/19 02:26:27;;;;;;;10.35;6.97;;;;;;;5.61;68.37;100669.00;1790944;78;21829;-57
2021/04/19 02:29:10;;;;;;;13.60;7.05;;;;;;;5.56;68.29;100663.58;1824107;77;21612;-57
2021/04/19 02:31:42;;;;;;;11.45;7.22;;;;;;;5.59;68.10;100658.17;1795021;78;21214;-57
2021/04/19 02:34:16;;;;;;;13.03;7.85;;;;;;;5.61;68.02;100662.47;1802956;78;21186;-57
2021/04/19 02:36:45;;;;;;;12.70;7.58;;;;;;;5.61;68.11;100663.78;1791302;78;21176;-57
2021/04/19 02:39:13;;;;;;;11.50;7.78;;;;;;;5.58;68.28;100663.47;1764864;79;21188;-57
2021/04/19 02:41:41;;;;;;;11.97;7.28;;;;;;;5.58;68.37;100666.08;1825364;77;21146;-58
2021/04/19 02:44:10;;;;;;;12.58;7.30;;;;;;;5.55;68.26;100674.94;1766275;78;21207;-58
2021/04/19 02:46:58;;;;;;;10.30;6.47;;;;;;;5.51;68.22;100672.57;1805658;77;21175;-56
2021/04/19 02:49:30;;;;;;;14.60;7.67;;;;;;;5.48;68.07;100672.73;1767599;79;21199;-57
2021/04/19 02:52:00;;;;;;;10.98;6.28;;;;;;;5.40;68.03;100670.08;1792916;78;21208;-57
2021/04/19 02:54:28;;;;;;;11.05;6.62;;;;;;;5.32;68.05;100673.56;1813761;78;21156;-56
2021/04/19 02:56:57;;;;;;;11.53;7.28;;;;;;;5.24;68.02;100669.68;1817404;77;21133;-57
2021/04/19 02:59:25;;;;;;;9.60;5.80;;;;;;;5.15;68.04;100666.63;1813384;78;21131;-56
2021/04/19 03:01:56;;;;;;;10.03;5.67;;;;;;;5.17;68.10;100674.37;1818487;77;21160;-57
2021/04/19 03:04:26;;;;;;;11.33;6.53;;;;;;;5.26;68.03;100676.95;1775442;78;22942;-57
2021/04/19 03:06:58;;;;;;;12.10;6.97;;;;;;;5.32;67.96;100679.25;1762604;80;21646;-56
2021/04/19 03:09:26;;;;;;;16.00;7.83;;;;;;;5.35;68.03;100673.88;1813333;77;21125;-57
2021/04/19 03:11:58;;;;;;;13.10;6.75;;;;;;;5.34;68.05;100674.31;1818302;77;21141;-57
2021/04/19 03:14:34;;;;;;;12.53;7.47;;;;;;;5.36;67.98;100671.19;1746371;78;21187;-58
2021/04/19 03:17:13;;;;;;;11.68;7.42;;;;;;;5.36;67.95;100672.93;1760873;79;21178;-58
2021/04/19 03:20:00;;;;;;;12.63;7.67;;;;;;;5.32;68.10;100670.95;1764426;78;21131;-57
2021/04/19 03:22:29;;;;;;;10.63;6.75;;;;;;;5.28;68.13;100668.14;1808610;78;21221;-57
2021/04/19 03:24:58;;;;;;;12.00;7.75;;;;;;;5.25;68.16;100673.52;1789893;78;21154;-57
2021/04/19 03:27:27;;;;;;;14.65;8.28;;;;;;;5.23;68.13;100677.98;1737887;80;21635;-57
2021/04/19 03:29:58;;;;;;;11.68;7.15;;;;;;;5.19;68.17;100681.22;1803789;77;21258;-57
2021/04/19 03:32:32;;;;;;;13.18;7.40;;;;;;;5.24;67.99;100678.81;1765487;79;21210;-56
2021/04/19 03:35:05;;;;;;;11.97;7.78;;;;;;;5.35;67.64;100677.31;1799812;79;21219;-57
2021/04/19 03:37:34;;;;;;;15.88;8.13;;;;;;;5.46;67.77;100678.50;1789633;78;21188;-57
2021/04/19 03:40:07;;;;;;;13.48;8.28;;;;;;;5.55;67.88;100679.33;1750730;80;21197;-57
2021/04/19 03:42:34;;;;;;;13.68;7.95;;;;;;;5.60;67.91;100679.91;1812045;77;23234;-57
2021/04/19 03:45:08;;;;;;;14.65;9.75;;;;;;;5.62;67.76;100679.36;1807996;77;21164;-57
2021/04/19 03:47:54;;;;;;;14.20;9.53;;;;;;;5.65;67.79;100680.95;1802505;77;21174;-58
2021/04/19 03:50:26;;;;;;;13.32;9.18;;;;;;;5.68;68.01;100680.34;1799858;77;21599;-59
2021/04/19 03:52:55;;;;;;;14.50;9.63;;;;;;;5.71;67.96;100680.15;1807009;77;21183;-57
2021/04/19 03:55:23;;;;;;;18.45;9.58;;;;;;;5.72;67.85;100682.31;1772703;79;21200;-63
2021/04/19 03:57:51;;;;;;;25.02;9.00;;;;;;;5.72;68.08;100680.54;1795243;77;21215;-60
2021/04/19 04:00:21;;;;;;;16.12;8.08;;;;;;;5.75;68.19;100685.59;1779757;78;21764;-60
2021/04/19 04:02:54;;;;;;;11.65;6.95;;;;;;;5.85;68.17;100688.98;1814683;77;21175;-60
2021/04/19 04:05:29;;;;;;;17.02;7.30;;;;;;;6.03;67.96;100684.08;1755097;80;21219;-60
2021/04/19 04:07:59;;;;;;;12.45;7.10;;;;;;;6.19;67.77;100685.85;1793504;77;21313;-61
2021/04/19 04:10:28;;;;;;;10.98;7.17;;;;;;;6.26;67.29;100681.95;1812941;77;21136;-62
2021/04/19 04:12:56;;;;;;;12.73;8.15;;;;;;;6.23;67.11;100683.42;1762233;78;21507;-62
2021/04/19 04:15:24;;;;;;;12.88;8.00;;;;;;;6.18;67.08;100683.68;1792405;77;21194;-63
2021/04/19 04:17:53;;;;;;;14.50;7.85;;;;;;;6.11;66.96;100684.49;1772876;78;21568;-62
2021/04/19 04:20:43;;;;;;;14.18;8.80;;;;;;;6.06;67.08;100677.37;1822948;76;22674;-60
2021/04/19 04:23:14;;;;;;;16.40;8.48;;;;;;;6.00;67.26;100687.33;1767368;78;21663;-61
2021/04/19 04:25:42;;;;;;;12.75;8.28;;;;;;;5.94;67.51;100681.49;1769140;78;21223;-62
2021/04/19 04:28:12;;;;;;;15.53;9.20;;;;;;;5.92;67.75;100682.05;1717231;81;21914;-63
2021/04/19 04:30:54;;;;;;;13.72;7.80;;;;;;;5.92;67.88;100684.66;1734318;81;21204;-61
2021/04/19 04:33:31;;;;;;;;;;;;;;;6.05;67.93;100675.72;1798069;79;22354;-61
2021/04/19 04:36:00;;;;;;;13.85;8.33;;;;;;;6.21;67.77;100689.21;1769838;80;20593;-61
2021/04/19 04:38:31;;;;;;;12.25;8.15;;;;;;;6.30;67.82;100683.00;1774318;78;21753;-61
2021/04/19 04:41:00;;;;;;;14.13;8.88;;;;;;;6.46;67.92;100689.48;1773701;78;21178;-58
2021/04/19 04:43:29;;;;;;;16.50;9.48;;;;;;;6.64;67.88;100694.55;1772158;80;21190;-60
2021/04/19 04:46:41;;;;;;;15.78;9.25;;;;;;;6.78;68.08;100691.16;1774059;80;21194;-61
2021/04/19 04:49:26;;;;;;;16.70;10.03;;;;;;;6.92;67.79;100698.17;1766764;78;21622;-60
2021/04/19 04:51:56;;;;;;;17.65;11.12;;;;;;;7.01;67.86;100702.83;1774015;78;21403;-60
2021/04/19 04:54:24;;;;;;;21.27;11.08;;;;;;;7.06;67.83;100700.34;1737237;78;21861;-61
2021/04/19 04:56:55;;;;;;;16.42;10.75;;;;;;;7.09;67.84;100689.30;1771075;78;21239;-60
2021/04/19 04:59:23;;;;;;;15.78;8.58;;;;;;;7.10;68.18;100685.77;1783216;79;21178;-61
2021/04/19 05:01:51;;;;;;;17.85;10.15;;;;;;;7.21;68.13;100683.31;1746989;80;21186;-61
2021/04/19 05:04:19;;;;;;;18.87;9.95;;;;;;;7.38;68.16;100680.52;1780129;80;21862;-60
2021/04/19 05:06:48;;;;;;;16.80;11.00;;;;;;;7.51;67.96;100679.27;1775745;78;21261;-58
2021/04/19 05:09:16;;;;;;;16.42;10.32;;;;;;;7.60;67.99;100677.39;1781303;78;21194;-58
2021/04/19 05:11:44;;;;;;;17.05;10.45;;;;;;;7.69;67.98;100681.69;1780462;78;21190;-58
2021/04/19 05:14:12;;;;;;;18.05;11.35;;;;;;;7.73;67.79;100681.41;1780498;78;21112;-58
2021/04/19 05:16:39;;;;;;;16.12;10.90;;;;;;;7.76;67.81;100676.42;1727702;81;21167;-59
2021/04/19 05:19:07;;;;;;;19.25;10.80;;;;;;;7.79;67.81;100686.71;1758875;78;21210;-59
2021/04/19 05:21:36;;;;;;;13.10;9.38;;;;;;;7.84;67.64;100686.42;1749257;80;21146;-60
2021/04/19 05:24:04;;;;;;;17.30;10.23;;;;;;;7.94;67.53;100679.17;1776216;78;21574;-58
2021/04/19 05:26:31;;;;;;;14.98;9.65;;;;;;;8.02;67.65;100676.52;1782795;78;21143;-58
2021/04/19 05:28:59;;;;;;;16.73;11.20;;;;;;;8.09;67.89;100675.20;1777230;78;21785;-59
2021/04/19 05:31:26;;;;;;;16.27;9.50;;;;;;;8.16;67.66;100673.38;1715630;81;21219;-57
2021/04/19 05:33:56;;;;;;;17.12;10.28;;;;;;;8.22;67.50;100672.61;1691392;82;21251;-58
2021/04/19 05:36:25;;;;;;;14.65;7.35;;;;;;;8.24;67.06;100665.47;1705684;82;21422;-57
2021/04/19 05:38:53;;;;;;;12.45;8.08;;;;;;;8.31;66.63;100666.30;1760032;79;21167;-58
2021/04/19 05:41:22;;;;;;;12.23;8.13;;;;;;;8.47;66.48;100667.48;1765846;79;21214;-58
2021/04/19 05:43:49;;;;;;;11.75;8.00;;;;;;;8.61;65.98;100669.17;1771584;79;21146;-58
2021/04/19 05:46:18;;;;;;;13.22;7.70;;;;;;;8.68;65.75;100667.80;1742371;80;21171;-58
2021/04/19 05:48:45;;;;;;;10.48;7.58;;;;;;;8.73;65.49;100663.08;1738391;79;21207;-58
2021/04/19 05:51:27;;;;;;;11.63;8.13;;;;;;;8.78;65.36;100661.46;1773038;79;21159;-59
2021/04/19 05:53:56;;;;;;;11.40;7.78;;;;;;;8.85;65.25;100655.33;1730459;82;21430;-64
2021/04/19 05:56:35;;;;;;;15.23;8.60;;;;;;;8.92;65.13;100660.03;1767210;80;21458;-64
2021/04/19 05:59:17;;;;;;;13.30;7.30;;;;;;;9.00;65.27;100663.94;1773326;79;21678;-63
2021/04/19 06:01:47;;;;;;;13.03;8.73;;;;;;;9.18;64.66;100666.59;1728056;79;21155;-61
2021/04/19 06:04:53;;;;;;;12.58;8.18;;;;;;;9.33;64.58;100662.06;1761801;79;21150;-59
2021/04/19 06:09:20;;;;;;;12.18;7.37;;;;;;;9.49;62.57;100653.44;1826442;76;22884;-61
2021/04/19 06:12:09;;;;;;;10.55;6.67;;;;;;;9.43;62.49;100653.03;1796297;78;21746;-56
2021/04/19 06:14:42;;;;;;;10.72;6.40;;;;;;;9.41;62.44;100649.69;1796250;79;21409;-55
2021/04/19 06:17:09;;;;;;;10.58;6.75;;;;;;;9.42;62.39;100650.89;1801176;77;20990;-59
2021/04/19 06:19:41;;;;;;;20.25;7.95;;;;;;;9.43;61.62;100643.84;1714224;82;21134;-63
2021/04/19 06:22:11;;;;;;;11.40;6.30;;;;;;;9.44;61.29;100640.28;1723450;81;21135;-60
2021/04/19 06:24:46;;;;;;;11.73;7.30;;;;;;;9.43;60.80;100634.65;1741360;77;21568;-61
2021/04/19 06:27:24;;;;;;;13.90;7.87;;;;;;;9.47;60.98;100640.06;1773947;79;21466;-61
2021/04/19 06:29:52;;;;;;;13.32;6.78;;;;;;;9.58;61.26;100641.46;1767983;79;21570;-59
2021/04/19 06:32:22;;;;;;;12.93;8.03;;;;;;;9.64;61.43;100632.28;1798381;77;21176;-61
2021/04/19 06:34:51;;;;;;;11.73;7.85;;;;;;;9.65;61.24;100634.80;1801319;77;21590;-57
2021/04/19 06:37:20;;;;;;;12.40;7.42;;;;;;;9.65;61.22;100636.13;1798685;79;21215;-55
2021/04/19 06:39:48;;;;;;;13.58;7.17;;;;;;;9.70;61.53;100636.25;1793914;79;21179;-59
2021/04/19 06:42:16;;;;;;;11.90;6.97;;;;;;;9.75;61.26;100632.36;1771011;79;21167;-59
2021/04/19 06:44:44;;;;;;;12.60;7.42;;;;;;;9.79;60.93;100629.86;1769227;79;21186;-56
2021/04/19 06:47:11;;;;;;;10.15;6.35;;;;;;;9.80;61.12;100631.55;1790224;79;21627;-57
2021/04/19 06:49:40;;;;;;;10.58;6.15;;;;;;;9.85;60.67;100625.48;1802228;79;21627;-56
2021/04/19 06:52:08;;;;;;;15.15;6.60;;;;;;;9.95;60.26;100623.02;1801401;79;21193;-57
2021/04/19 06:54:36;;;;;;;13.18;7.37;;;;;;;10.05;60.04;100623.16;1802113;77;21611;-58
2021/04/19 06:57:07;;;;;;;10.40;5.62;;;;;;;10.10;59.61;100620.19;1792716;79;21195;-59
2021/04/19 06:59:35;;;;;;;9.48;6.47;;;;;;;10.16;59.80;100619.74;1766983;79;21164;-59
2021/04/19 07:02:04;;;;;;;10.40;5.87;;;;;;;10.17;59.46;100620.95;1764418;79;21207;-57
2021/04/19 07:04:32;;;;;;;10.82;5.97;;;;;;;10.22;59.95;100619.27;1775823;79;21210;-57
2021/04/19 07:07:00;;;;;;;12.75;7.67;;;;;;;10.27;59.83;100619.79;1800083;77;21199;-57
2021/04/19 07:09:31;;;;;;;10.93;6.80;;;;;;;10.31;59.77;100619.08;1794489;79;21164;-57
2021/04/19 07:12:09;;;;;;;13.50;7.28;;;;;;;10.42;59.44;100617.80;1777344;79;21551;-58
2021/04/19 07:14:39;;;;;;;10.68;6.55;;;;;;;10.56;59.36;100609.71;1795271;77;21176;-59
2021/04/19 07:17:08;;;;;;;11.35;6.53;;;;;;;10.64;59.41;100616.17;1794715;79;21250;-58
2021/04/19 07:19:38;;;;;;;10.98;6.15;;;;;;;10.67;59.13;100614.62;1777195;79;21200;-58
2021/04/19 07:22:06;;;;;;;9.58;6.53;;;;;;;10.73;59.37;100610.22;1756381;80;21158;-57
2021/04/19 07:24:34;;;;;;;12.05;6.20;;;;;;;10.84;59.21;100613.32;1790004;79;22283;-57
2021/04/19 07:27:05;;;;;;;8.68;5.65;;;;;;;10.94;59.18;100611.19;1755252;80;21195;-62
2021/04/19 07:29:34;;;;;;;8.13;5.05;;;;;;;11.06;58.23;100605.90;1774443;80;21408;-60
2021/04/19 07:32:02;;;;;;;11.35;5.33;;;;;;;11.13;57.73;100599.21;1794733;79;21164;-60
2021/04/19 07:34:31;;;;;;;8.33;4.50;;;;;;;11.20;57.03;100605.66;1751570;80;21146;-62
2021/04/19 07:37:04;;;;;;;7.97;4.10;;;;;;;11.26;56.96;100596.42;1775715;79;21184;-59
2021/04/19 07:39:38;;;;;;;6.53;3.92;;;;;;;11.33;57.23;100594.51;1734671;81;21183;-59
2021/04/19 07:42:11;;;;;;;6.75;4.12;;;;;;;11.42;56.42;100584.20;1795959;79;21292;-57
2021/04/19 07:44:51;;;;;;;8.10;3.98;;;;;;;11.49;55.83;100589.32;1781550;80;21373;-58
2021/04/19 07:47:38;;;;;;;9.93;4.65;;;;;;;11.55;56.03;100586.20;1779577;78;21148;-56
2021/04/19 07:50:21;;;;;;;8.53;5.40;;;;;;;11.63;55.17;100582.47;1780513;80;21610;-57
2021/04/19 07:52:59;;;;;;;7.33;4.60;;;;;;;11.71;54.29;100582.65;1754401;80;21120;-57
2021/04/19 07:58:28;;;;;;;8.63;5.22;;;;;;;11.80;54.58;100573.64;1792109;76;22541;-68
2021/04/19 08:01:03;;;;;;;10.25;5.00;;;;;;;11.80;54.41;100574.95;1807000;77;21402;-71
2021/04/19 08:03:41;;;;;;;8.53;4.42;;;;;;;11.87;54.55;100574.83;1806433;77;21404;-71
2021/04/19 08:06:19;;;;;;;9.70;4.58;;;;;;;12.00;54.94;100574.66;1801172;78;21179;-68
2021/04/19 08:08:47;;;;;;;9.33;4.92;;;;;;;12.13;54.38;100572.67;1808542;77;21163;-68
2021/04/19 08:11:17;;;;;;;8.75;4.75;;;;;;;12.24;53.70;100569.16;1752494;77;21261;-69
2021/04/19 08:13:45;;;;;;;6.83;3.30;;;;;;;12.35;53.77;100569.55;1784991;77;21574;-68
2021/04/19 08:16:21;;;;;;;7.67;3.60;;;;;;;12.41;53.18;100565.91;1790958;78;21184;-70
2021/04/19 08:18:51;;;;;;;6.90;3.70;;;;;;;12.43;53.49;100567.94;1766607;78;21226;-69
2021/04/19 08:21:31;;;;;;;6.65;3.40;;;;;;;12.45;52.81;100565.99;1773578;77;21440;-71
2021/04/19 08:24:18;;;;;;;5.12;2.85;;;;;;;12.49;52.76;100563.09;1800393;77;21148;-68
2021/04/19 08:26:58;;;;;;;6.47;2.75;;;;;;;12.59;52.60;100560.02;1811961;77;21139;-66
2021/04/19 08:29:42;;;;;;;7.17;3.67;;;;;;;12.68;51.41;100561.06;1809604;77;21363;-66
2021/04/19 08:32:17;;;;;;;4.60;2.50;;;;;;;12.67;51.43;100559.37;1801234;77;21216;-69
2021/04/19 08:34:47;;;;;;;8.20;2.62;;;;;;;12.64;50.55;100552.08;1743490;80;21223;-66
2021/04/19 08:37:20;;;;;;;5.67;2.70;;;;;;;12.66;49.82;100560.33;1737422;80;22640;-68
2021/04/19 08:39:48;;;;;;;6.25;3.33;;;;;;;12.67;50.35;100564.16;1715264;81;21211;-69
2021/04/19 08:42:17;;;;;;;8.28;3.72;;;;;;;12.71;50.15;100562.09;1728340;80;22043;-69
2021/04/19 08:44:45;;;;;;;6.53;3.40;;;;;;;12.74;50.13;100553.91;1719583;81;21249;-68
2021/04/19 08:50:05;;;;;;;7.12;2.80;;;;;;;12.92;50.77;100550.98;1822494;76;22717;-57
2021/04/19 08:52:32;;;;;;;5.75;2.77;;;;;;;13.02;50.14;100562.91;1770915;79;21164;-59
2021/04/19 08:55:01;;;;;;;6.70;3.15;;;;;;;13.09;48.66;100554.80;1772896;79;21088;-58
2021/04/19 08:57:28;;;;;;;5.37;2.62;;;;;;;13.17;48.06;100551.48;1765880;79;21195;-59
2021/04/19 08:59:56;;;;;;;4.70;2.20;;;;;;;13.24;46.61;100549.96;1771451;79;21246;-60
2021/04/19 09:02:24;;;;;;;4.75;1.85;;;;;;;13.29;46.74;100551.71;1686576;82;21644;-60
2021/04/19 09:05:13;;;;;;;4.80;2.58;;;;;;;13.36;46.09;100552.89;1739519;80;21188;-60
2021/04/19 09:07:45;;;;;;;5.45;2.58;;;;;;;13.40;46.60;100553.45;1720125;81;21661;-59
2021/04/19 09:10:18;;;;;;;5.97;2.67;;;;;;;13.37;46.26;100549.75;1743847;81;21211;-59
2021/04/19 09:12:47;;;;;;;5.90;3.08;;;;;;;13.37;46.96;100554.55;1742794;81;21215;-60
2021/04/19 09:15:29;;;;;;;7.35;3.17;;;;;;;13.39;46.84;100555.73;1742532;80;21518;-60
2021/04/19 09:18:08;;;;;;;5.40;2.90;;;;;;;13.37;46.69;100550.58;1742586;81;21191;-59
2021/04/19 09:20:49;;;;;;;7.08;3.42;;;;;;;13.40;46.12;100549.95;1796712;79;21368;-61
2021/04/19 09:23:34;;;;;;;5.72;3.05;;;;;;;13.46;45.59;100551.55;1799986;79;21143;-59
2021/04/19 09:26:00;;;;;;;6.17;3.30;;;;;;;13.52;45.64;100537.80;1796883;77;21132;-61
2021/04/19 09:28:45;;;;;;;6.33;2.40;;;;;;;13.65;46.23;100547.26;1800844;77;21104;-60
2021/04/19 09:31:14;;;;;;;6.50;2.87;;;;;;;13.86;47.02;100537.38;1801179;79;21136;-60
2021/04/19 09:33:42;;;;;;;6.10;2.98;;;;;;;14.09;45.71;100533.94;1793973;77;21191;-58
2021/04/19 09:37:57;;;;;;;5.08;2.58;;;;;;;14.38;44.95;100539.66;1791898;78;21980;-65
2021/04/19 09:40:25;;;;;;;6.35;3.37;;;;;;;14.43;44.99;100542.70;1736045;80;21223;-65
2021/04/19 09:43:06;;;;;;;6.65;3.02;;;;;;;14.49;44.99;100541.28;1727850;80;21175;-67
2021/04/19 09:45:53;;;;;;;5.30;2.65;;;;;;;14.50;45.40;100544.28;1761845;79;21673;-65
2021/04/19 09:48:34;;;;;;;5.45;2.45;;;;;;;14.47;44.10;100540.59;1760691;80;21136;-67
2021/04/19 09:51:17;;;;;;;6.05;2.95;;;;;;;14.31;44.48;100549.16;1765318;80;21120;-66
2021/04/19 09:54:09;;;;;;;6.83;3.47;;;;;;;14.21;45.73;100550.49;1770684;79;21124;-68
2021/04/19 09:56:47;;;;;;;5.58;2.67;;;;;;;14.16;46.31;100558.02;1740252;80;21227;-65
2021/04/19 09:59:22;;;;;;;6.30;2.33;;;;;;;14.13;46.06;100552.52;1745377;79;21652;-66
2021/04/19 10:01:52;;;;;;;;;;;;;;;14.12;44.25;100551.33;1768550;80;21188;-67
2021/04/19 10:04:20;;;;;;;5.97;2.62;;;;;;;14.09;44.28;100552.96;1766858;80;20285;-65
2021/04/19 10:06:51;;;;;;;6.12;2.83;;;;;;;13.99;44.92;100550.82;1759080;80;21165;-71
2021/04/19 10:09:26;;;;;;;6.28;3.25;;;;;;;13.94;46.52;100552.06;1770547;80;21205;-67
2021/04/19 10:12:05;;;;;;;6.43;3.80;;;;;;;13.93;47.13;100560.95;1762658;80;21140;-67
2021/04/19 10:14:35;;;;;;;5.20;2.62;;;;;;;13.94;47.25;100565.28;1735793;80;21140;-68
2021/04/19 10:17:17;;;;;;;6.00;3.15;;;;;;;13.93;47.47;100564.10;1767015;80;21081;-67
2021/04/19 10:19:47;;;;;;;5.25;2.90;;;;;;;13.98;47.45;100565.01;1768772;79;21077;-66
2021/04/19 10:22:17;;;;;;;7.65;3.22;;;;;;;14.02;47.59;100565.92;1736692;80;21756;-67
2021/04/19 10:24:58;;;;;;;6.90;3.20;;;;;;;14.11;47.78;100564.23;1735535;80;21199;-67
2021/04/19 10:27:29;;;;;;;8.60;3.25;;;;;;;14.20;47.09;100563.86;1741308;80;21195;-67
2021/04/19 10:30:13;;;;;;;5.22;2.80;;;;;;;14.15;45.43;100561.63;1746342;80;21227;-67
2021/04/19 10:32:41;;;;;;;6.67;2.70;;;;;;;14.07;45.21;100568.13;1766798;80;21188;-67
2021/04/19 10:35:32;;;;;;;5.58;2.70;;;;;;;13.97;45.80;100564.65;1732656;80;21769;-67
2021/04/19 10:38:02;;;;;;;5.53;2.70;;;;;;;13.88;46.17;100561.87;1721947;80;22525;-67
2021/04/19 10:40:30;;;;;;;5.85;2.87;;;;;;;13.78;46.92;100568.14;1682506;84;21748;-70
2021/04/19 10:43:11;;;;;;;7.37;3.67;;;;;;;13.69;46.22;100568.50;1718685;81;21247;-68
2021/04/19 10:45:40;;;;;;;6.95;3.02;;;;;;;13.65;46.72;100561.80;1715101;81;21675;-68
2021/04/19 10:48:22;;;;;;;7.60;2.58;;;;;;;13.64;47.28;100565.44;1712097;81;21209;-68
2021/04/19 10:50:51;;;;;;;5.95;2.87;;;;;;;13.64;46.04;100577.33;1693909;82;21467;-67
2021/04/19 10:53:39;;;;;;;6.47;3.62;;;;;;;13.61;46.89;100578.92;1697926;81;21227;-68
2021/04/19 10:56:08;;;;;;;7.55;3.08;;;;;;;13.62;46.59;100580.11;1634016;84;21248;-69
2021/04/19 10:58:38;;;;;;;6.72;3.00;;;;;;;13.63;45.96;100582.26;1716404;81;21598;-68
2021/04/19 11:01:06;;;;;;;6.62;2.80;;;;;;;13.66;45.73;100580.67;1711103;81;22397;-70
2021/04/19 11:03:35;;;;;;;6.25;3.02;;;;;;;13.75;45.80;100579.83;1719349;82;21530;-68
2021/04/19 11:06:09;;;;;;;6.22;3.35;;;;;;;13.82;45.69;100575.67;1717696;81;22462;-70
2021/04/19 11:09:00;;;;;;;7.33;3.12;;;;;;;13.83;46.15;100579.14;1693862;83;21207;-66
2021/04/19 11:11:42;;;;;;;5.65;3.20;;;;;;;13.84;46.21;100576.36;1700397;82;21553;-67
2021/04/19 11:14:15;;;;;;;6.80;3.90;;;;;;;13.82;46.57;100582.75;1719270;82;21205;-67
2021/04/19 11:17:04;;;;;;;6.08;2.77;;;;;;;13.79;46.93;100578.59;1690672;83;21212;-68
2021/04/19 11:19:45;;;;;;;6.90;3.20;;;;;;;13.85;47.07;100572.75;1704358;82;21172;-67
2021/04/19 11:22:27;;;;;;;5.70;2.90;;;;;;;13.87;46.96;100577.41;1717142;81;21183;-67
2021/04/19 11:25:23;;;;;;;6.55;3.47;;;;;;;13.93;46.56;100566.25;1696995;82;21576;-66
2021/04/19 11:27:53;;;;;;;5.87;3.00;;;;;;;13.96;46.84;100566.97;1711819;81;21390;-66
2021/04/19 11:30:28;;;;;;;6.35;3.35;;;;;;;14.00;46.83;100563.88;1702497;81;21212;-67
2021/04/19 11:33:25;;;;;;;5.28;2.87;;;;;;;14.03;46.67;100562.28;1709105;81;22368;-66
2021/04/19 11:36:02;;;;;;;5.55;2.85;;;;;;;14.10;46.39;100564.73;1715460;81;21139;-66
2021/04/19 11:38:31;;;;;;;5.17;2.55;;;;;;;14.21;45.00;100561.08;1751097;80;21189;-67
2021/04/19 11:41:01;;;;;;;4.60;2.20;;;;;;;14.26;44.76;100554.87;1754003;81;21202;-67
2021/04/19 11:43:36;;;;;;;6.10;3.08;;;;;;;14.29;44.72;100554.59;1751867;80;21209;-68
2021/04/19 11:46:10;;;;;;;5.42;2.30;;;;;;;14.33;44.74;100556.95;1735517;81;21138;-67
2021/04/19 11:48:42;;;;;;;6.20;2.02;;;;;;;14.34;44.50;100550.66;1755289;80;21475;-67
2021/04/19 11:51:10;;;;;;;5.60;2.60;;;;;;;14.35;44.69;100547.88;1766523;81;21133;-68
2021/04/19 11:53:40;;;;;;;5.28;2.80;;;;;;;14.38;44.78;100546.27;1759075;79;21197;-68
2021/04/19 11:56:10;;;;;;;6.50;2.33;;;;;;;14.43;44.18;100546.67;1755691;80;21247;-69
2021/04/19 11:58:43;;;;;;;5.62;2.87;;;;;;;14.46;44.34;100540.27;1754254;80;21094;-69
2021/04/19 12:01:15;;;;;;;5.15;2.65;;;;;;;14.47;44.22;100545.42;1730477;81;21165;-67